Bungo Princess — 3FXV8 — position and weather

sailwx.info

Track history (hours):
 
Tides and Currents Weather Stations Pressure Air Temp Water Temp Dewpoint Dewpoint Depression Visibility Wind Speed Wind Dir Waves Ship Positions

Bungo Princess

Last reported at 2016-Jul-26 14:33 UTC. Time now 2016-Jul-26 21:52 UTC.
Position N 30°59' E 122°37'.

Length 103 m; draft 6.6 m.

Type: Cargo ship. MMSI: 355074054.

Date/timePositionNaut miles runAvg speedWind from/ knotsBaromVisibWave heightAir tempDewpointWater temp
2016-Jul-26 14:33N 30°59' E 122°37'1413.9
2016-Jul-26 13:33N 31°01' E 122°21'3112.9
2016-Jul-26 11:11N 31°13' E 121°48'813.4
2016-Jul-26 10:33N 31°19' E 121°42'1110.6
2016-Jul-26 09:33N 31°23' E 121°30'2 1.6
2016-Jul-26 08:31N 31°22' E 121°30'0 0.0
2016-Jul-26 07:25N 31°22' E 121°30'0 0.0
2016-Jul-26 06:31N 31°22' E 121°30'0 0.0
2016-Jul-26 04:19N 31°22' E 121°30'0 0.0
2016-Jul-26 03:31N 31°22' E 121°30'0 0.0
2016-Jul-26 02:13N 31°22' E 121°30'0 0.0
2016-Jul-26 00:25N 31°22' E 121°30'0 0.0
2016-Jul-25 23:33N 31°22' E 121°30'1 1.3
2016-Jul-25 22:34N 31°23' E 121°30'5 4.6
2016-Jul-25 21:33N 31°23' E 121°36'7 6.8
2016-Jul-25 20:33N 31°19' E 121°42'  
2016-Jul-22 08:20N 34°07' E 134°56'1214.0
2016-Jul-22 07:31N 34°18' E 134°59'2412.5
2016-Jul-22 05:33N 34°36' E 135°19'5 4.7
2016-Jul-22 04:31N 34°38' E 135°25'0 0.0
2016-Jul-22 03:31N 34°38' E 135°25'0 0.0
2016-Jul-22 02:33N 34°38' E 135°25'0 0.0
2016-Jul-22 01:33N 34°38' E 135°25'0 0.0
2016-Jul-22 00:33N 34°38' E 135°25'0 0.0
2016-Jul-21 23:33N 34°38' E 135°25'0 0.0
2016-Jul-21 22:33N 34°38' E 135°25'0 0.0
2016-Jul-21 21:32N 34°38' E 135°25'0 0.0
2016-Jul-21 20:33N 34°38' E 135°25'0 0.0
2016-Jul-21 19:33N 34°38' E 135°25'0 0.0
2016-Jul-21 18:34N 34°38' E 135°25'0 0.0
2016-Jul-21 17:33N 34°38' E 135°25'0 0.0
2016-Jul-21 16:33N 34°38' E 135°25'0 0.0
2016-Jul-21 15:33N 34°38' E 135°25'0 0.0
2016-Jul-21 14:33N 34°38' E 135°25'0 0.0
2016-Jul-21 13:33N 34°38' E 135°25'0 0.0
2016-Jul-21 12:33N 34°38' E 135°25'0 0.0
2016-Jul-21 11:34N 34°38' E 135°25'0 0.0
2016-Jul-21 10:33N 34°38' E 135°25'0 0.0
2016-Jul-21 09:34N 34°38' E 135°25'0 0.0
2016-Jul-21 08:33N 34°38' E 135°25'0 0.0
2016-Jul-21 07:32N 34°38' E 135°25'0 0.0
2016-Jul-21 06:33N 34°38' E 135°25'0 0.0
2016-Jul-21 05:33N 34°38' E 135°25'0 0.0
2016-Jul-21 04:33N 34°38' E 135°25'0 0.0
2016-Jul-21 03:33N 34°38' E 135°25'0 0.0
2016-Jul-21 02:33N 34°38' E 135°25'0 0.0
2016-Jul-21 01:33N 34°38' E 135°25'0 0.0
2016-Jul-21 00:33N 34°38' E 135°25'0 0.0
2016-Jul-20 23:33N 34°38' E 135°25'0 0.0
2016-Jul-20 22:33N 34°38' E 135°25'2 2.0
2016-Jul-20 21:33N 34°38' E 135°22'4 4.1
2016-Jul-20 20:33N 34°36' E 135°18'1110.5
2016-Jul-20 19:32N 34°28' E 135°09'1111.4
2016-Jul-20 18:33N 34°19' E 135°00'1210.3
2016-Jul-20 17:26N 34°08' E 134°59'  
Track history (hours):
 
Tides and Currents Weather Stations Pressure Air Temp Water Temp Dewpoint Dewpoint Depression Visibility Wind Speed Wind Dir Waves Ship Positions

Bungo Princess

Last reported at 2016-Jul-26 14:33 UTC. Time now 2016-Jul-26 21:52 UTC.
Position N 30°59' E 122°37'.

Length 103 m; draft 6.6 m.

Type: Cargo ship. MMSI: 355074054.

Date/timePositionNaut miles runAvg speedWind from/ knotsBaromVisibWave heightAir tempDewpointWater temp
2016-Jul-26 14:33N 30°59' E 122°37'1413.9
2016-Jul-26 13:33N 31°01' E 122°21'3112.9
2016-Jul-26 11:11N 31°13' E 121°48'813.4
2016-Jul-26 10:33N 31°19' E 121°42'1110.6
2016-Jul-26 09:33N 31°23' E 121°30'2 1.6
2016-Jul-26 08:31N 31°22' E 121°30'0 0.0
2016-Jul-26 07:25N 31°22' E 121°30'0 0.0
2016-Jul-26 06:31N 31°22' E 121°30'0 0.0
2016-Jul-26 04:19N 31°22' E 121°30'0 0.0
2016-Jul-26 03:31N 31°22' E 121°30'0 0.0
2016-Jul-26 02:13N 31°22' E 121°30'0 0.0
2016-Jul-26 00:25N 31°22' E 121°30'0 0.0
2016-Jul-25 23:33N 31°22' E 121°30'1 1.3
2016-Jul-25 22:34N 31°23' E 121°30'5 4.6
2016-Jul-25 21:33N 31°23' E 121°36'7 6.8
2016-Jul-25 20:33N 31°19' E 121°42'  
2016-Jul-22 08:20N 34°07' E 134°56'1214.0
2016-Jul-22 07:31N 34°18' E 134°59'2412.5
2016-Jul-22 05:33N 34°36' E 135°19'5 4.7
2016-Jul-22 04:31N 34°38' E 135°25'0 0.0
2016-Jul-22 03:31N 34°38' E 135°25'0 0.0
2016-Jul-22 02:33N 34°38' E 135°25'0 0.0
2016-Jul-22 01:33N 34°38' E 135°25'0 0.0
2016-Jul-22 00:33N 34°38' E 135°25'0 0.0
2016-Jul-21 23:33N 34°38' E 135°25'0 0.0
2016-Jul-21 22:33N 34°38' E 135°25'0 0.0
2016-Jul-21 21:32N 34°38' E 135°25'0 0.0
2016-Jul-21 20:33N 34°38' E 135°25'0 0.0
2016-Jul-21 19:33N 34°38' E 135°25'0 0.0
2016-Jul-21 18:34N 34°38' E 135°25'0 0.0
2016-Jul-21 17:33N 34°38' E 135°25'0 0.0
2016-Jul-21 16:33N 34°38' E 135°25'0 0.0
2016-Jul-21 15:33N 34°38' E 135°25'0 0.0
2016-Jul-21 14:33N 34°38' E 135°25'0 0.0
2016-Jul-21 13:33N 34°38' E 135°25'0 0.0
2016-Jul-21 12:33N 34°38' E 135°25'0 0.0
2016-Jul-21 11:34N 34°38' E 135°25'0 0.0
2016-Jul-21 10:33N 34°38' E 135°25'0 0.0
2016-Jul-21 09:34N 34°38' E 135°25'0 0.0
2016-Jul-21 08:33N 34°38' E 135°25'0 0.0
2016-Jul-21 07:32N 34°38' E 135°25'0 0.0
2016-Jul-21 06:33N 34°38' E 135°25'0 0.0
2016-Jul-21 05:33N 34°38' E 135°25'0 0.0
2016-Jul-21 04:33N 34°38' E 135°25'0 0.0
2016-Jul-21 03:33N 34°38' E 135°25'0 0.0
2016-Jul-21 02:33N 34°38' E 135°25'0 0.0
2016-Jul-21 01:33N 34°38' E 135°25'0 0.0
2016-Jul-21 00:33N 34°38' E 135°25'0 0.0
2016-Jul-20 23:33N 34°38' E 135°25'0 0.0
2016-Jul-20 22:33N 34°38' E 135°25'2 2.0
2016-Jul-20 21:33N 34°38' E 135°22'4 4.1
2016-Jul-20 20:33N 34°36' E 135°18'1110.5
2016-Jul-20 19:32N 34°28' E 135°09'1111.4
2016-Jul-20 18:33N 34°19' E 135°00'1210.3
2016-Jul-20 17:26N 34°08' E 134°59'  

Dump ship's entire track history